sensor_id;sensor_type;location;lat;lon;timestamp;pressure;altitude;pressure_sealevel;temperature;humidity
56198;BME280;42700;42.524;12.052;2023-05-19T00:00:34;98160.47;;;17.81;100.00
56198;BME280;42700;42.524;12.052;2023-05-19T00:03:01;97433.00;;;17.55;100.00
56198;BME280;42700;42.524;12.052;2023-05-19T00:05:27;97295.38;;;17.47;100.00
56198;BME280;42700;42.524;12.052;2023-05-19T00:07:55;97731.75;;;17.62;100.00
56198;BME280;42700;42.524;12.052;2023-05-19T00:10:23;97719.34;;;17.61;100.00
56198;BME280;42700;42.524;12.052;2023-05-19T00:12:48;97880.84;;;17.64;100.00
56198;BME280;42700;42.524;12.052;2023-05-19T00:15:14;98332.38;;;17.81;100.00
56198;BME280;42700;42.524;12.052;2023-05-19T00:17:40;98170.44;;;17.74;100.00
56198;BME280;42700;42.524;12.052;2023-05-19T00:20:06;98266.66;;;17.77;100.00
56198;BME280;42700;42.524;12.052;2023-05-19T00:22:32;98367.50;;;17.80;100.00
56198;BME280;42700;42.524;12.052;2023-05-19T00:24:58;98520.03;;;17.84;100.00
56198;BME280;42700;42.524;12.052;2023-05-19T00:27:23;98512.97;;;17.83;100.00
56198;BME280;42700;42.524;12.052;2023-05-19T00:29:49;98820.41;;;17.96;100.00
56198;BME280;42700;42.524;12.052;2023-05-19T00:32:14;98511.97;;;17.84;100.00
56198;BME280;42700;42.524;12.052;2023-05-19T00:34:40;98774.72;;;17.96;100.00
56198;BME280;42700;42.524;12.052;2023-05-19T00:37:05;98780.09;;;17.96;100.00
56198;BME280;42700;42.524;12.052;2023-05-19T00:39:31;98852.22;;;17.99;100.00
56198;BME280;42700;42.524;12.052;2023-05-19T00:41:56;98909.97;;;18.03;100.00
56198;BME280;42700;42.524;12.052;2023-05-19T00:44:22;98888.47;;;18.03;100.00
56198;BME280;42700;42.524;12.052;2023-05-19T00:46:47;98826.84;;;18.01;100.00
56198;BME280;42700;42.524;12.052;2023-05-19T00:49:13;98576.28;;;17.93;100.00
56198;BME280;42700;42.524;12.052;2023-05-19T00:51:38;98283.84;;;17.83;100.00
56198;BME280;42700;42.524;12.052;2023-05-19T00:54:04;98406.81;;;17.87;100.00
56198;BME280;42700;42.524;12.052;2023-05-19T00:56:30;98287.34;;;17.83;100.00
56198;BME280;42700;42.524;12.052;2023-05-19T00:58:56;98341.66;;;17.85;100.00
56198;BME280;42700;42.524;12.052;2023-05-19T01:01:21;98180.31;;;17.80;100.00
56198;BME280;42700;42.524;12.052;2023-05-19T01:03:47;98124.31;;;17.77;100.00
56198;BME280;42700;42.524;12.052;2023-05-19T01:06:12;98128.66;;;17.78;100.00
56198;BME280;42700;42.524;12.052;2023-05-19T01:08:39;97820.50;;;17.67;100.00
56198;BME280;42700;42.524;12.052;2023-05-19T01:11:05;98173.31;;;17.79;100.00
56198;BME280;42700;42.524;12.052;2023-05-19T01:13:30;97968.38;;;17.72;100.00
56198;BME280;42700;42.524;12.052;2023-05-19T01:18:28;97685.50;;;17.60;100.00
56198;BME280;42700;42.524;12.052;2023-05-19T01:21:09;97958.06;;;17.69;100.00
56198;BME280;42700;42.524;12.052;2023-05-19T01:31:20;98153.69;;;17.72;100.00
56198;BME280;42700;42.524;12.052;2023-05-19T01:33:48;97890.16;;;17.62;100.00
56198;BME280;42700;42.524;12.052;2023-05-19T01:36:16;97607.94;;;17.51;100.00
56198;BME280;42700;42.524;12.052;2023-05-19T01:38:42;97797.88;;;17.56;100.00
56198;BME280;42700;42.524;12.052;2023-05-19T01:41:07;97955.63;;;17.61;100.00
56198;BME280;42700;42.524;12.052;2023-05-19T01:43:33;97663.72;;;17.49;100.00
56198;BME280;42700;42.524;12.052;2023-05-19T01:46:00;97860.44;;;17.57;100.00
56198;BME280;42700;42.524;12.052;2023-05-19T01:48:26;97865.22;;;17.55;100.00
56198;BME280;42700;42.524;12.052;2023-05-19T01:50:53;97874.31;;;17.53;100.00
56198;BME280;42700;42.524;12.052;2023-05-19T01:53:21;97602.88;;;17.43;100.00
56198;BME280;42700;42.524;12.052;2023-05-19T01:55:49;97598.53;;;17.42;100.00
56198;BME280;42700;42.524;12.052;2023-05-19T02:01:02;97679.03;;;17.42;100.00
56198;BME280;42700;42.524;12.052;2023-05-19T02:03:36;97799.19;;;17.47;100.00
56198;BME280;42700;42.524;12.052;2023-05-19T02:08:34;97900.97;;;17.48;100.00
56198;BME280;42700;42.524;12.052;2023-05-19T02:11:10;98181.63;;;17.58;100.00
56198;BME280;42700;42.524;12.052;2023-05-19T02:13:39;97821.91;;;17.44;100.00
56198;BME280;42700;42.524;12.052;2023-05-19T02:16:07;98222.50;;;17.60;100.00
56198;BME280;42700;42.524;12.052;2023-05-19T02:18:35;98162.19;;;17.56;100.00
56198;BME280;42700;42.524;12.052;2023-05-19T02:21:01;98327.84;;;17.62;100.00
56198;BME280;42700;42.524;12.052;2023-05-19T02:23:27;98074.84;;;17.53;100.00
56198;BME280;42700;42.524;12.052;2023-05-19T02:25:52;98083.50;;;17.55;100.00
56198;BME280;42700;42.524;12.052;2023-05-19T02:28:18;97871.66;;;17.47;100.00
56198;BME280;42700;42.524;12.052;2023-05-19T02:30:43;97907.38;;;17.47;100.00
56198;BME280;42700;42.524;12.052;2023-05-19T02:33:09;98024.03;;;17.51;100.00
56198;BME280;42700;42.524;12.052;2023-05-19T02:35:35;97915.44;;;17.47;100.00
56198;BME280;42700;42.524;12.052;2023-05-19T02:38:01;98034.78;;;17.51;100.00
56198;BME280;42700;42.524;12.052;2023-05-19T02:40:27;98142.56;;;17.55;100.00
56198;BME280;42700;42.524;12.052;2023-05-19T02:42:53;98175.41;;;17.57;100.00
56198;BME280;42700;42.524;12.052;2023-05-19T02:45:18;98272.47;;;17.61;100.00
56198;BME280;42700;42.524;12.052;2023-05-19T02:47:44;98226.22;;;17.59;100.00
56198;BME280;42700;42.524;12.052;2023-05-19T02:50:09;98292.94;;;17.62;100.00
56198;BME280;42700;42.524;12.052;2023-05-19T02:52:35;98041.78;;;17.52;100.00
56198;BME280;42700;42.524;12.052;2023-05-19T02:55:00;97852.06;;;17.46;100.00
56198;BME280;42700;42.524;12.052;2023-05-19T02:57:26;97882.19;;;17.48;100.00
56198;BME280;42700;42.524;12.052;2023-05-19T02:59:51;98268.75;;;17.62;100.00
56198;BME280;42700;42.524;12.052;2023-05-19T03:02:17;97967.88;;;17.50;100.00
56198;BME280;42700;42.524;12.052;2023-05-19T03:04:42;98442.31;;;17.69;100.00
56198;BME280;42700;42.524;12.052;2023-05-19T03:07:08;98507.19;;;17.73;100.00
56198;BME280;42700;42.524;12.052;2023-05-19T03:09:36;98617.53;;;17.78;100.00
56198;BME280;42700;42.524;12.052;2023-05-19T03:12:02;98562.13;;;17.77;100.00
56198;BME280;42700;42.524;12.052;2023-05-19T03:14:29;98607.41;;;17.80;100.00
56198;BME280;42700;42.524;12.052;2023-05-19T03:16:54;98531.56;;;17.78;100.00
56198;BME280;42700;42.524;12.052;2023-05-19T03:19:24;98496.66;;;17.78;100.00
56198;BME280;42700;42.524;12.052;2023-05-19T03:21:51;98235.72;;;17.68;100.00
56198;BME280;42700;42.524;12.052;2023-05-19T03:24:16;97679.19;;;17.47;100.00
56198;BME280;42700;42.524;12.052;2023-05-19T03:26:42;98012.84;;;17.61;100.00
56198;BME280;42700;42.524;12.052;2023-05-19T03:29:07;97982.47;;;17.61;100.00
56198;BME280;42700;42.524;12.052;2023-05-19T03:31:33;97840.00;;;17.56;100.00
56198;BME280;42700;42.524;12.052;2023-05-19T03:33:58;97970.09;;;17.60;100.00
56198;BME280;42700;42.524;12.052;2023-05-19T03:36:24;98046.50;;;17.64;100.00
56198;BME280;42700;42.524;12.052;2023-05-19T03:38:50;98023.38;;;17.63;100.00
56198;BME280;42700;42.524;12.052;2023-05-19T03:41:15;97694.88;;;17.50;100.00
56198;BME280;42700;42.524;12.052;2023-05-19T03:43:41;97582.78;;;17.46;100.00
56198;BME280;42700;42.524;12.052;2023-05-19T03:46:06;97606.72;;;17.47;100.00
56198;BME280;42700;42.524;12.052;2023-05-19T03:48:32;97177.97;;;17.31;100.00
56198;BME280;42700;42.524;12.052;2023-05-19T03:50:57;97021.66;;;17.24;100.00
56198;BME280;42700;42.524;12.052;2023-05-19T03:53:22;97186.25;;;17.29;100.00
56198;BME280;42700;42.524;12.052;2023-05-19T03:55:48;97329.41;;;17.35;100.00
56198;BME280;42700;42.524;12.052;2023-05-19T03:58:15;97029.13;;;17.22;100.00
56198;BME280;42700;42.524;12.052;2023-05-19T04:00:41;96947.47;;;17.18;100.00
56198;BME280;42700;42.524;12.052;2023-05-19T04:03:06;96937.56;;;17.18;100.00
56198;BME280;42700;42.524;12.052;2023-05-19T04:05:32;96540.56;;;17.01;100.00
56198;BME280;42700;42.524;12.052;2023-05-19T04:07:58;96925.44;;;17.15;100.00
56198;BME280;42700;42.524;12.052;2023-05-19T04:10:24;96840.31;;;17.11;100.00
56198;BME280;42700;42.524;12.052;2023-05-19T04:12:49;96971.03;;;17.15;100.00
56198;BME280;42700;42.524;12.052;2023-05-19T04:15:15;96964.03;;;17.14;100.00
56198;BME280;42700;42.524;12.052;2023-05-19T04:17:40;96956.00;;;17.14;100.00
56198;BME280;42700;42.524;12.052;2023-05-19T04:20:06;96855.59;;;17.10;100.00
56198;BME280;42700;42.524;12.052;2023-05-19T04:22:32;96940.97;;;17.13;100.00
56198;BME280;42700;42.524;12.052;2023-05-19T04:24:57;96950.06;;;17.12;100.00
56198;BME280;42700;42.524;12.052;2023-05-19T04:27:23;96862.00;;;17.09;100.00
56198;BME280;42700;42.524;12.052;2023-05-19T04:29:50;97006.97;;;17.14;100.00
56198;BME280;42700;42.524;12.052;2023-05-19T04:32:15;97188.44;;;17.21;100.00
56198;BME280;42700;42.524;12.052;2023-05-19T04:34:43;97138.53;;;17.20;100.00
56198;BME280;42700;42.524;12.052;2023-05-19T04:37:13;97241.88;;;17.22;100.00
56198;BME280;42700;42.524;12.052;2023-05-19T04:39:38;97350.16;;;17.28;100.00
56198;BME280;42700;42.524;12.052;2023-05-19T04:42:07;97245.16;;;17.24;100.00
56198;BME280;42700;42.524;12.052;2023-05-19T04:44:34;97106.34;;;17.20;100.00
56198;BME280;42700;42.524;12.052;2023-05-19T04:47:00;96717.09;;;17.04;100.00
56198;BME280;42700;42.524;12.052;2023-05-19T04:49:25;97180.97;;;17.23;100.00
56198;BME280;42700;42.524;12.052;2023-05-19T04:51:51;96789.59;;;17.09;100.00
56198;BME280;42700;42.524;12.052;2023-05-19T04:54:17;96562.53;;;16.98;100.00
56198;BME280;42700;42.524;12.052;2023-05-19T04:56:42;96867.97;;;17.11;100.00
56198;BME280;42700;42.524;12.052;2023-05-19T04:59:08;96853.97;;;17.09;100.00
56198;BME280;42700;42.524;12.052;2023-05-19T05:01:34;97071.72;;;17.18;100.00
56198;BME280;42700;42.524;12.052;2023-05-19T05:04:04;96512.63;;;16.97;100.00
56198;BME280;42700;42.524;12.052;2023-05-19T05:06:30;97093.97;;;17.19;100.00
56198;BME280;42700;42.524;12.052;2023-05-19T05:08:55;96776.41;;;17.08;100.00
56198;BME280;42700;42.524;12.052;2023-05-19T05:11:21;96976.41;;;17.15;100.00
56198;BME280;42700;42.524;12.052;2023-05-19T05:13:46;97004.88;;;17.17;100.00
56198;BME280;42700;42.524;12.052;2023-05-19T05:16:12;97184.28;;;17.25;100.00
56198;BME280;42700;42.524;12.052;2023-05-19T05:18:38;97390.56;;;17.33;100.00
56198;BME280;42700;42.524;12.052;2023-05-19T05:21:04;97152.06;;;17.25;100.00
56198;BME280;42700;42.524;12.052;2023-05-19T05:23:30;96755.31;;;17.11;100.00
56198;BME280;42700;42.524;12.052;2023-05-19T05:25:56;96796.91;;;17.14;100.00
56198;BME280;42700;42.524;12.052;2023-05-19T05:28:21;96982.94;;;17.20;100.00
56198;BME280;42700;42.524;12.052;2023-05-19T05:30:46;97057.84;;;17.21;100.00
56198;BME280;42700;42.524;12.052;2023-05-19T05:33:13;97032.03;;;17.20;100.00
56198;BME280;42700;42.524;12.052;2023-05-19T05:35:39;96505.16;;;16.99;100.00
56198;BME280;42700;42.524;12.052;2023-05-19T05:38:04;97126.50;;;17.22;100.00
56198;BME280;42700;42.524;12.052;2023-05-19T05:40:30;97236.88;;;17.26;100.00
56198;BME280;42700;42.524;12.052;2023-05-19T05:42:56;97317.97;;;17.28;100.00
56198;BME280;42700;42.524;12.052;2023-05-19T05:45:23;97683.38;;;17.43;100.00
56198;BME280;42700;42.524;12.052;2023-05-19T05:47:49;97480.28;;;17.37;100.00
56198;BME280;42700;42.524;12.052;2023-05-19T05:50:14;97632.38;;;17.43;100.00
56198;BME280;42700;42.524;12.052;2023-05-19T05:52:40;97878.84;;;17.53;100.00
56198;BME280;42700;42.524;12.052;2023-05-19T05:55:08;97327.19;;;17.32;100.00
56198;BME280;42700;42.524;12.052;2023-05-19T05:57:34;97000.66;;;17.21;100.00
56198;BME280;42700;42.524;12.052;2023-05-19T06:00:00;97597.50;;;17.43;100.00
56198;BME280;42700;42.524;12.052;2023-05-19T06:02:26;97315.41;;;17.33;100.00
56198;BME280;42700;42.524;12.052;2023-05-19T06:04:52;97173.09;;;17.28;100.00
56198;BME280;42700;42.524;12.052;2023-05-19T06:07:18;97493.84;;;17.42;100.00
56198;BME280;42700;42.524;12.052;2023-05-19T06:09:44;97191.97;;;17.33;100.00
56198;BME280;42700;42.524;12.052;2023-05-19T06:12:10;97864.78;;;17.58;100.00
56198;BME280;42700;42.524;12.052;2023-05-19T06:14:35;97580.50;;;17.49;100.00
56198;BME280;42700;42.524;12.052;2023-05-19T06:17:01;98095.66;;;17.71;100.00
56198;BME280;42700;42.524;12.052;2023-05-19T06:19:26;97706.59;;;17.56;100.00
56198;BME280;42700;42.524;12.052;2023-05-19T06:21:52;97611.22;;;17.53;100.00
56198;BME280;42700;42.524;12.052;2023-05-19T06:24:17;97865.56;;;17.65;100.00
56198;BME280;42700;42.524;12.052;2023-05-19T06:26:43;97244.25;;;17.42;100.00
56198;BME280;42700;42.524;12.052;2023-05-19T06:29:08;97571.53;;;17.56;100.00
56198;BME280;42700;42.524;12.052;2023-05-19T06:31:34;97228.16;;;17.42;100.00
56198;BME280;42700;42.524;12.052;2023-05-19T06:33:59;97703.00;;;17.62;100.00
56198;BME280;42700;42.524;12.052;2023-05-19T06:36:25;96523.66;;;17.18;100.00
56198;BME280;42700;42.524;12.052;2023-05-19T06:38:50;96546.75;;;17.19;100.00
56198;BME280;42700;42.524;12.052;2023-05-19T06:41:16;97102.69;;;17.38;100.00
56198;BME280;42700;42.524;12.052;2023-05-19T06:43:41;97033.78;;;17.38;100.00
56198;BME280;42700;42.524;12.052;2023-05-19T06:46:07;96811.44;;;17.30;100.00
56198;BME280;42700;42.524;12.052;2023-05-19T06:48:32;96866.47;;;17.32;100.00
56198;BME280;42700;42.524;12.052;2023-05-19T06:50:58;96967.72;;;17.37;100.00
56198;BME280;42700;42.524;12.052;2023-05-19T06:53:23;96975.31;;;17.40;100.00
56198;BME280;42700;42.524;12.052;2023-05-19T06:55:49;96589.47;;;17.25;100.00
56198;BME280;42700;42.524;12.052;2023-05-19T06:58:15;97137.00;;;17.47;100.00
56198;BME280;42700;42.524;12.052;2023-05-19T07:00:40;96945.78;;;17.40;100.00
56198;BME280;42700;42.524;12.052;2023-05-19T07:03:07;97265.97;;;17.52;100.00
56198;BME280;42700;42.524;12.052;2023-05-19T07:05:33;97347.69;;;17.57;100.00
56198;BME280;42700;42.524;12.052;2023-05-19T07:07:58;96909.03;;;17.41;100.00
56198;BME280;42700;42.524;12.052;2023-05-19T07:10:24;97290.28;;;17.58;100.00
56198;BME280;42700;42.524;12.052;2023-05-19T07:12:49;96697.78;;;17.36;100.00
56198;BME280;42700;42.524;12.052;2023-05-19T07:15:15;97358.53;;;17.62;100.00
56198;BME280;42700;42.524;12.052;2023-05-19T07:17:40;97070.28;;;17.51;100.00
56198;BME280;42700;42.524;12.052;2023-05-19T07:20:06;97624.63;;;17.72;100.00
56198;BME280;42700;42.524;12.052;2023-05-19T07:22:34;97408.66;;;17.68;100.00
56198;BME280;42700;42.524;12.052;2023-05-19T07:25:00;97677.47;;;17.78;100.00
56198;BME280;42700;42.524;12.052;2023-05-19T07:27:25;97826.97;;;17.84;100.00
56198;BME280;42700;42.524;12.052;2023-05-19T07:29:51;97960.44;;;17.91;100.00
56198;BME280;42700;42.524;12.052;2023-05-19T07:32:16;97762.13;;;17.87;100.00
56198;BME280;42700;42.524;12.052;2023-05-19T07:34:42;98392.72;;;18.12;100.00
56198;BME280;42700;42.524;12.052;2023-05-19T07:37:07;98428.91;;;18.16;100.00
56198;BME280;42700;42.524;12.052;2023-05-19T07:39:33;98487.84;;;18.24;100.00
56198;BME280;42700;42.524;12.052;2023-05-19T07:41:59;98630.53;;;18.30;100.00
56198;BME280;42700;42.524;12.052;2023-05-19T07:44:24;98939.41;;;18.46;100.00
56198;BME280;42700;42.524;12.052;2023-05-19T07:46:51;98097.91;;;18.19;100.00
56198;BME280;42700;42.524;12.052;2023-05-19T07:49:17;98765.22;;;18.48;100.00
56198;BME280;42700;42.524;12.052;2023-05-19T07:51:42;98933.88;;;18.54;100.00
56198;BME280;42700;42.524;12.052;2023-05-19T07:54:08;99333.03;;;18.75;100.00
56198;BME280;42700;42.524;12.052;2023-05-19T07:56:33;98962.28;;;18.63;100.00
56198;BME280;42700;42.524;12.052;2023-05-19T07:58:59;99339.34;;;18.82;100.00
56198;BME280;42700;42.524;12.052;2023-05-19T08:01:24;98944.72;;;18.68;100.00
56198;BME280;42700;42.524;12.052;2023-05-19T08:03:50;99054.88;;;18.76;100.00
56198;BME280;42700;42.524;12.052;2023-05-19T08:06:15;99025.06;;;18.77;100.00
56198;BME280;42700;42.524;12.052;2023-05-19T08:08:41;99308.59;;;18.91;100.00
56198;BME280;42700;42.524;12.052;2023-05-19T08:11:06;99177.75;;;18.90;100.00
56198;BME280;42700;42.524;12.052;2023-05-19T08:13:32;99078.19;;;18.90;100.00
56198;BME280;42700;42.524;12.052;2023-05-19T08:15:58;99940.94;;;19.24;100.00
56198;BME280;42700;42.524;12.052;2023-05-19T08:18:25;99717.13;;;19.19;100.00
56198;BME280;42700;42.524;12.052;2023-05-19T08:20:50;99996.63;;;19.32;100.00
56198;BME280;42700;42.524;12.052;2023-05-19T08:23:16;100308.75;;;19.51;100.00
56198;BME280;42700;42.524;12.052;2023-05-19T08:25:42;99200.91;;;19.13;100.00
56198;BME280;42700;42.524;12.052;2023-05-19T08:28:07;99756.72;;;19.33;100.00
56198;BME280;42700;42.524;12.052;2023-05-19T08:30:33;99736.00;;;19.34;100.00
56198;BME280;42700;42.524;12.052;2023-05-19T08:32:58;100083.25;;;19.52;100.00
56198;BME280;42700;42.524;12.052;2023-05-19T08:35:24;100681.63;;;19.85;100.00
56198;BME280;42700;42.524;12.052;2023-05-19T08:37:50;100936.84;;;20.02;100.00
56198;BME280;42700;42.524;12.052;2023-05-19T08:40:16;100422.44;;;19.88;100.00
56198;BME280;42700;42.524;12.052;2023-05-19T08:42:43;101005.72;;;20.15;100.00
56198;BME280;42700;42.524;12.052;2023-05-19T08:45:09;100697.16;;;20.07;100.00
56198;BME280;42700;42.524;12.052;2023-05-19T08:47:35;100583.53;;;20.02;100.00
56198;BME280;42700;42.524;12.052;2023-05-19T08:50:02;99909.91;;;19.83;100.00
56198;BME280;42700;42.524;12.052;2023-05-19T08:52:49;100646.28;;;20.13;100.00
56198;BME280;42700;42.524;12.052;2023-05-19T08:57:47;99356.75;;;19.72;100.00
56198;BME280;42700;42.524;12.052;2023-05-19T09:00:16;101778.84;;;20.68;100.00
56198;BME280;42700;42.524;12.052;2023-05-19T09:02:44;100895.25;;;20.39;100.00
56198;BME280;42700;42.524;12.052;2023-05-19T09:05:10;101876.91;;;20.88;100.00
56198;BME280;42700;42.524;12.052;2023-05-19T09:07:35;102177.13;;;21.04;100.00
56198;BME280;42700;42.524;12.052;2023-05-19T09:10:02;99606.97;;;20.05;100.00
56198;BME280;42700;42.524;12.052;2023-05-19T09:12:28;99904.47;;;20.21;100.00
56198;BME280;42700;42.524;12.052;2023-05-19T09:14:53;100814.31;;;20.56;100.00
56198;BME280;42700;42.524;12.052;2023-05-19T09:17:19;99700.66;;;20.18;100.00
56198;BME280;42700;42.524;12.052;2023-05-19T09:19:45;100856.81;;;20.62;100.00
56198;BME280;42700;42.524;12.052;2023-05-19T09:22:15;98682.91;;;19.81;100.00
56198;BME280;42700;42.524;12.052;2023-05-19T09:24:43;99312.66;;;20.08;100.00
56198;BME280;42700;42.524;12.052;2023-05-19T09:27:09;100072.75;;;20.35;100.00
56198;BME280;42700;42.524;12.052;2023-05-19T09:29:38;100719.88;;;20.64;100.00
56198;BME280;42700;42.524;12.052;2023-05-19T09:32:04;99753.56;;;20.34;100.00
56198;BME280;42700;42.524;12.052;2023-05-19T09:34:30;99979.91;;;20.44;100.00
56198;BME280;42700;42.524;12.052;2023-05-19T09:36:56;101247.53;;;20.88;100.00
56198;BME280;42700;42.524;12.052;2023-05-19T09:39:23;100051.56;;;20.46;100.00
56198;BME280;42700;42.524;12.052;2023-05-19T09:41:50;99864.72;;;20.44;100.00
56198;BME280;42700;42.524;12.052;2023-05-19T09:44:24;98818.22;;;20.09;100.00
56198;BME280;42700;42.524;12.052;2023-05-19T09:46:56;100019.44;;;20.52;100.00
56198;BME280;42700;42.524;12.052;2023-05-19T09:49:26;98929.78;;;20.15;100.00
56198;BME280;42700;42.524;12.052;2023-05-19T09:52:01;98814.06;;;20.07;100.00
56198;BME280;42700;42.524;12.052;2023-05-19T09:54:28;98841.66;;;20.09;100.00
56198;BME280;42700;42.524;12.052;2023-05-19T09:59:22;97370.84;;;19.57;100.00
56198;BME280;42700;42.524;12.052;2023-05-19T10:01:48;97906.59;;;19.70;100.00
56198;BME280;42700;42.524;12.052;2023-05-19T10:04:14;99042.63;;;20.12;100.00
56198;BME280;42700;42.524;12.052;2023-05-19T10:06:40;98179.00;;;19.81;100.00
56198;BME280;42700;42.524;12.052;2023-05-19T10:09:05;98669.16;;;19.96;100.00
56198;BME280;42700;42.524;12.052;2023-05-19T10:11:31;99298.19;;;20.16;100.00
56198;BME280;42700;42.524;12.052;2023-05-19T10:13:57;98864.28;;;20.01;100.00
56198;BME280;42700;42.524;12.052;2023-05-19T10:16:23;99495.75;;;20.25;100.00
56198;BME280;42700;42.524;12.052;2023-05-19T10:18:50;99063.81;;;20.15;100.00
56198;BME280;42700;42.524;12.052;2023-05-19T10:21:17;99272.69;;;20.19;100.00
56198;BME280;42700;42.524;12.052;2023-05-19T10:23:45;98154.16;;;19.79;100.00
56198;BME280;42700;42.524;12.052;2023-05-19T10:26:11;98722.03;;;19.97;100.00
56198;BME280;42700;42.524;12.052;2023-05-19T10:28:38;98662.34;;;19.93;100.00
56198;BME280;42700;42.524;12.052;2023-05-19T10:31:06;99853.38;;;20.34;100.00
56198;BME280;42700;42.524;12.052;2023-05-19T10:33:39;97947.91;;;19.64;100.00
56198;BME280;42700;42.524;12.052;2023-05-19T10:36:14;99071.66;;;19.96;100.00
56198;BME280;42700;42.524;12.052;2023-05-19T10:38:57;98552.94;;;19.79;100.00
56198;BME280;42700;42.524;12.052;2023-05-19T10:41:27;99153.53;;;19.95;100.00
56198;BME280;42700;42.524;12.052;2023-05-19T10:44:04;98798.78;;;19.81;100.00
56198;BME280;42700;42.524;12.052;2023-05-19T10:46:32;99539.56;;;20.05;100.00
56198;BME280;42700;42.524;12.052;2023-05-19T10:48:58;98972.91;;;19.82;100.00
56198;BME280;42700;42.524;12.052;2023-05-19T10:51:30;99857.19;;;20.10;100.00
56198;BME280;42700;42.524;12.052;2023-05-19T10:53:56;99728.69;;;20.02;100.00
56198;BME280;42700;42.524;12.052;2023-05-19T10:56:27;99103.94;;;19.76;100.00
56198;BME280;42700;42.524;12.052;2023-05-19T10:58:58;99344.84;;;19.82;100.00
56198;BME280;42700;42.524;12.052;2023-05-19T11:01:28;98404.13;;;19.45;100.00
56198;BME280;42700;42.524;12.052;2023-05-19T11:03:55;99918.19;;;19.96;100.00
56198;BME280;42700;42.524;12.052;2023-05-19T11:08:56;98111.31;;;19.33;100.00
56198;BME280;42700;42.524;12.052;2023-05-19T11:11:22;99141.59;;;19.69;100.00
56198;BME280;42700;42.524;12.052;2023-05-19T11:13:53;99180.97;;;19.70;100.00
56198;BME280;42700;42.524;12.052;2023-05-19T11:16:26;99942.28;;;19.98;100.00
56198;BME280;42700;42.524;12.052;2023-05-19T11:18:54;99149.47;;;19.71;100.00
56198;BME280;42700;42.524;12.052;2023-05-19T11:21:20;99234.47;;;19.73;100.00
56198;BME280;42700;42.524;12.052;2023-05-19T11:23:45;98836.69;;;19.59;100.00
56198;BME280;42700;42.524;12.052;2023-05-19T11:26:10;98978.66;;;19.65;100.00
56198;BME280;42700;42.524;12.052;2023-05-19T11:28:36;98529.66;;;19.46;100.00
56198;BME280;42700;42.524;12.052;2023-05-19T11:31:03;99498.69;;;19.80;100.00
56198;BME280;42700;42.524;12.052;2023-05-19T11:33:32;100042.22;;;19.96;100.00
56198;BME280;42700;42.524;12.052;2023-05-19T11:35:58;101773.97;;;20.61;100.00
56198;BME280;42700;42.524;12.052;2023-05-19T11:38:23;100141.94;;;20.04;100.00
56198;BME280;42700;42.524;12.052;2023-05-19T11:40:52;101516.81;;;20.50;100.00
56198;BME280;42700;42.524;12.052;2023-05-19T11:43:18;102841.25;;;21.02;100.00
56198;BME280;42700;42.524;12.052;2023-05-19T11:45:46;101330.16;;;20.44;100.00
56198;BME280;42700;42.524;12.052;2023-05-19T11:48:11;99126.22;;;19.63;100.00
56198;BME280;42700;42.524;12.052;2023-05-19T11:50:39;100586.94;;;20.13;100.00
56198;BME280;42700;42.524;12.052;2023-05-19T11:53:05;101739.28;;;20.57;100.00
56198;BME280;42700;42.524;12.052;2023-05-19T11:55:31;101430.41;;;20.50;100.00
56198;BME280;42700;42.524;12.052;2023-05-19T11:57:59;100698.88;;;20.25;100.00
56198;BME280;42700;42.524;12.052;2023-05-19T12:00:27;100820.66;;;20.30;100.00
56198;BME280;42700;42.524;12.052;2023-05-19T12:02:52;100892.50;;;20.31;100.00
56198;BME280;42700;42.524;12.052;2023-05-19T12:05:20;101813.25;;;20.66;100.00
56198;BME280;42700;42.524;12.052;2023-05-19T12:07:47;102039.97;;;20.77;100.00
56198;BME280;42700;42.524;12.052;2023-05-19T12:10:15;101013.31;;;20.45;100.00
56198;BME280;42700;42.524;12.052;2023-05-19T12:12:41;101004.22;;;20.46;100.00
56198;BME280;42700;42.524;12.052;2023-05-19T12:15:06;101827.72;;;20.74;100.00
56198;BME280;42700;42.524;12.052;2023-05-19T12:17:32;101703.63;;;20.73;100.00
56198;BME280;42700;42.524;12.052;2023-05-19T12:19:58;100594.16;;;20.37;100.00
56198;BME280;42700;42.524;12.052;2023-05-19T12:22:25;101121.34;;;20.54;100.00
56198;BME280;42700;42.524;12.052;2023-05-19T12:24:51;100777.84;;;20.43;100.00
56198;BME280;42700;42.524;12.052;2023-05-19T12:37:51;102000.78;;;21.02;100.00
56198;BME280;42700;42.524;12.052;2023-05-19T12:40:16;102893.63;;;21.35;100.00
56198;BME280;42700;42.524;12.052;2023-05-19T12:42:45;103114.53;;;21.46;100.00
56198;BME280;42700;42.524;12.052;2023-05-19T12:45:10;103820.59;;;21.73;100.00
56198;BME280;42700;42.524;12.052;2023-05-19T12:47:39;104800.81;;;22.18;100.00
56198;BME280;42700;42.524;12.052;2023-05-19T12:50:05;104869.63;;;22.33;100.00
56198;BME280;42700;42.524;12.052;2023-05-19T12:52:33;104890.47;;;22.48;100.00
56198;BME280;42700;42.524;12.052;2023-05-19T12:55:05;105356.28;;;22.76;100.00
56198;BME280;42700;42.524;12.052;2023-05-19T12:57:39;105324.31;;;22.83;100.00
56198;BME280;42700;42.524;12.052;2023-05-19T13:00:12;103396.47;;;22.12;100.00
56198;BME280;42700;42.524;12.052;2023-05-19T13:02:54;102290.53;;;21.77;100.00
56198;BME280;42700;42.524;12.052;2023-05-19T13:05:20;101247.16;;;21.35;100.00
56198;BME280;42700;42.524;12.052;2023-05-19T13:07:53;102468.97;;;21.79;100.00